Detalii statie AGRIND TASNAD [0000197A]

Toti senzorii

Date Temperatura solului [C]Precipitatii [mm]Voltaj baterie [mV]Leaf Wetness [Min]HC Air temperature [C]HC Relative humidity [%]Punctul de roua [C]
medieminmaxsumaultimatimpmedieminmaxmediemediemin
2018-10-13 16:00:00 18.1 18.1 18.2 0 7274 22.94 22.89 22.99 33.71 5.9 5.7
2018-10-13 16:10:00 18.2 18.2 18.3 0 7274 22.88 22.86 22.9 35.04 6.4 6.2
2018-10-13 16:20:00 18.3 18.3 18.4 0 7264 22.74 22.74 22.74 33.9 5.8 5.6
2018-10-13 16:30:00 18.4 18.3 18.5 0 7274 22.66 22.65 22.68 35.99 6.6 6.4
2018-10-13 16:40:00 18.4 18.3 18.5 0 7264 22.38 22.31 22.46 38.87 7.5 7.3
2018-10-13 16:50:00 18.3 18.3 18.4 0 7274 21.92 21.79 22.06 40.57 7.6 7.5
2018-10-13 17:00:00 18.5 18.5 18.5 0 7264 21.41 21.26 21.57 42.48 7.9 7.8
2018-10-13 17:10:00 18.5 18.5 18.5 0 7226 20.79 20.68 20.9 44.57 8 7.9
2018-10-13 17:20:00 18.5 18.5 18.5 0 7206 20.12 19.94 20.3 46.37 8.1 8
2018-10-13 17:30:00 18.4 18.4 18.5 0 7080 19.27 19.11 19.44 46.17 7.2 7.2
2018-10-13 17:40:00 18.5 18.5 18.5 0 7060 18.88 18.82 18.95 45.52 6.6 6.6
2018-10-13 17:50:00 18.4 18.4 18.5 0 7050 18.89 18.71 19.07 45.31 6.5 6.5
2018-10-13 18:00:00 18.3 18.3 18.3 0 7040 18.17 18.06 18.28 47.36 6.4 6.4
2018-10-13 18:10:00 18.2 18.2 18.3 0 6962 17.6 17.36 17.85 48.47 6.4 6.3
2018-10-13 18:20:00 18.2 18.2 18.3 0 6982 16.74 16.41 17.07 50.19 6.2 6.2
2018-10-13 18:30:00 18.1 18.1 18.1 0 6972 15.88 15.81 15.95 53.01 6.1 6
2018-10-13 18:40:00 17.9 17.9 18 0 6972 16.6 16.57 16.64 52.01 6.5 6.4
2018-10-13 18:50:00 17.9 17.8 18 0 6972 16.05 15.67 16.43 54.03 6.5 6.5
2018-10-13 19:00:00 17.8 17.8 17.9 0 6962 15.07 14.91 15.24 57.27 6.5 6.5
2018-10-13 19:10:00 17.7 17.6 17.9 0 6914 14.49 14.34 14.65 59.62 6.5 6.4
2018-10-13 19:20:00 17.6 17.6 17.7 0 6932 14.1 13.95 14.25 61.29 6.6 6.5
2018-10-13 19:30:00 17.5 17.5 17.6 0 6932 13.56 13.49 13.63 66.49 7.3 7
2018-10-13 19:40:00 17.5 17.4 17.6 0 6942 13.06 12.86 13.27 67.21 7 7
2018-10-13 19:50:00 17.3 17.3 17.4 0 6942 12.78 12.78 12.78 68.95 7.1 7
2018-10-13 20:00:00 17.3 17.2 17.4 0 6942 12.57 12.52 12.63 69.93 7.1 7.1
2018-10-13 20:10:00 17.3 17.2 17.4 0 6894 12.4 12.34 12.46 70.89 7.1 7.1
2018-10-13 20:20:00 17.1 17.1 17.2 0 6914 11.76 11.63 11.9 74.11 7.2 7.2
2018-10-13 20:30:00 17 17 17.1 0 6914 11.61 11.58 11.64 75.32 7.2 7.2
2018-10-13 20:40:00 16.9 16.9 16.9 0 6932 11.54 11.47 11.61 75.92 7.3 7.3
2018-10-13 20:50:00 16.8 16.8 16.8 0 6922 11.26 11.24 11.28 77.17 7.2 7.1
2018-10-13 21:00:00 16.8 16.8 16.9 0 6932 11.29 11.21 11.38 76.74 7.1 7.1
2018-10-13 21:10:00 16.6 16.6 16.7 0 6874 10.9 10.73 11.08 78.17 7 7
2018-10-13 21:20:00 16.6 16.6 16.7 0 6904 10.53 10.46 10.61 80.53 7.3 7.3
2018-10-13 21:30:00 16.5 16.5 16.6 0 6904 10.32 10.32 10.33 82.06 7.3 7.2
2018-10-13 21:40:00 16.5 16.5 16.5 0 6914 10.07 9.91 10.24 82.89 7.2 7.2
2018-10-13 21:50:00 16.3 16.3 16.3 0 6914 9.97 9.9 10.05 85.01 7.4 7.3
2018-10-13 22:00:00 16.3 16.3 16.4 0 6922 10.09 10.08 10.1 84.13 7.4 7.4
2018-10-13 22:10:00 16.2 16.2 16.2 0 6874 9.91 9.82 10 84.37 7.3 7.2
2018-10-13 22:20:00 16.2 16.2 16.2 0 6894 9.55 9.47 9.63 85.95 7.2 7.2
2018-10-13 22:30:00 16.1 16.1 16.1 0 6894 9.53 9.4 9.67 86.67 7.3 7.2
2018-10-13 22:40:00 16.1 16.1 16.1 0 6914 9.16 9.13 9.2 88.19 7.2 7.2
2018-10-13 22:50:00 15.9 15.9 16 0 6914 9.18 9.18 9.19 89.25 7.4 7.4
2018-10-13 23:00:00 15.9 15.9 15.9 0 6904 9.16 9.15 9.18 89.25 7.4 7.4
2018-10-13 23:10:00 15.8 15.8 15.8 0 6864 8.88 8.77 8.99 90.05 7.2 7.2
2018-10-13 23:20:00 15.6 15.6 15.7 0 6884 8.78 8.7 8.86 90.67 7.2 7.2
2018-10-13 23:30:00 15.7 15.6 15.8 0 6884 8.82 8.79 8.86 90.77 7.3 7.3
2018-10-13 23:40:00 15.5 15.5 15.6 0 6904 9.07 8.98 9.17 89.4 7.2 7.2
2018-10-13 23:50:00 15.4 15.4 15.5 0 6904 8.95 8.78 9.12 88.33 7 6.8